sensor_id;sensor_type;location;lat;lon;timestamp;temperature;humidity
37956;DHT22;23776;51.592;7.180;2023-04-28T00:00:28;10.60;1.00
37956;DHT22;23776;51.592;7.180;2023-04-28T00:02:53;10.70;1.00
37956;DHT22;23776;51.592;7.180;2023-04-28T00:05:19;10.70;99.90
37956;DHT22;23776;51.592;7.180;2023-04-28T00:07:45;10.80;71.80
37956;DHT22;23776;51.592;7.180;2023-04-28T00:10:11;10.70;99.90
37956;DHT22;23776;51.592;7.180;2023-04-28T00:12:36;10.80;99.90
37956;DHT22;23776;51.592;7.180;2023-04-28T00:15:02;10.80;99.90
37956;DHT22;23776;51.592;7.180;2023-04-28T00:17:28;10.80;59.70
37956;DHT22;23776;51.592;7.180;2023-04-28T00:19:53;10.80;99.90
37956;DHT22;23776;51.592;7.180;2023-04-28T00:22:19;10.80;99.90
37956;DHT22;23776;51.592;7.180;2023-04-28T00:24:45;10.80;99.90
37956;DHT22;23776;51.592;7.180;2023-04-28T00:27:10;10.80;99.90
37956;DHT22;23776;51.592;7.180;2023-04-28T00:29:36;10.80;99.90
37956;DHT22;23776;51.592;7.180;2023-04-28T00:32:01;10.70;99.90
37956;DHT22;23776;51.592;7.180;2023-04-28T00:34:27;10.80;1.00
37956;DHT22;23776;51.592;7.180;2023-04-28T00:36:54;10.80;1.00
37956;DHT22;23776;51.592;7.180;2023-04-28T00:39:20;10.80;38.80
37956;DHT22;23776;51.592;7.180;2023-04-28T00:41:47;10.80;89.30
37956;DHT22;23776;51.592;7.180;2023-04-28T00:44:12;10.80;30.70
37956;DHT22;23776;51.592;7.180;2023-04-28T00:46:38;10.70;99.90
37956;DHT22;23776;51.592;7.180;2023-04-28T00:49:04;10.70;99.90
37956;DHT22;23776;51.592;7.180;2023-04-28T00:51:30;10.70;19.50
37956;DHT22;23776;51.592;7.180;2023-04-28T00:53:58;10.70;99.90
37956;DHT22;23776;51.592;7.180;2023-04-28T00:56:24;10.80;1.00
37956;DHT22;23776;51.592;7.180;2023-04-28T00:58:52;10.80;99.90
37956;DHT22;23776;51.592;7.180;2023-04-28T01:01:17;10.70;99.90
37956;DHT22;23776;51.592;7.180;2023-04-28T01:03:43;10.70;99.90
37956;DHT22;23776;51.592;7.180;2023-04-28T01:06:09;10.70;99.90
37956;DHT22;23776;51.592;7.180;2023-04-28T01:08:36;10.80;1.00
37956;DHT22;23776;51.592;7.180;2023-04-28T01:11:02;10.80;1.00
37956;DHT22;23776;51.592;7.180;2023-04-28T01:13:28;10.70;99.90
37956;DHT22;23776;51.592;7.180;2023-04-28T01:15:54;10.80;99.90
37956;DHT22;23776;51.592;7.180;2023-04-28T01:18:21;10.80;99.90
37956;DHT22;23776;51.592;7.180;2023-04-28T01:20:47;10.90;99.90
37956;DHT22;23776;51.592;7.180;2023-04-28T01:23:13;10.90;99.90
37956;DHT22;23776;51.592;7.180;2023-04-28T01:25:39;10.90;1.00
37956;DHT22;23776;51.592;7.180;2023-04-28T01:28:06;10.90;1.00
37956;DHT22;23776;51.592;7.180;2023-04-28T01:30:31;10.90;99.90
37956;DHT22;23776;51.592;7.180;2023-04-28T01:32:57;10.80;99.90
37956;DHT22;23776;51.592;7.180;2023-04-28T01:35:23;10.80;1.00
37956;DHT22;23776;51.592;7.180;2023-04-28T01:37:48;10.70;1.00
37956;DHT22;23776;51.592;7.180;2023-04-28T01:40:14;10.50;1.00
37956;DHT22;23776;51.592;7.180;2023-04-28T01:42:39;10.40;99.90
37956;DHT22;23776;51.592;7.180;2023-04-28T01:45:05;10.40;1.00
37956;DHT22;23776;51.592;7.180;2023-04-28T01:47:31;10.30;99.90
37956;DHT22;23776;51.592;7.180;2023-04-28T01:49:57;10.20;99.90
37956;DHT22;23776;51.592;7.180;2023-04-28T01:52:22;10.20;99.90
37956;DHT22;23776;51.592;7.180;2023-04-28T01:54:49;10.20;1.00
37956;DHT22;23776;51.592;7.180;2023-04-28T01:57:15;10.30;99.90
37956;DHT22;23776;51.592;7.180;2023-04-28T01:59:41;10.40;99.90
37956;DHT22;23776;51.592;7.180;2023-04-28T02:02:06;10.40;25.70
37956;DHT22;23776;51.592;7.180;2023-04-28T02:04:32;10.40;1.00
37956;DHT22;23776;51.592;7.180;2023-04-28T02:06:58;10.40;1.00
37956;DHT22;23776;51.592;7.180;2023-04-28T02:09:24;11.80;99.90
37956;DHT22;23776;51.592;7.180;2023-04-28T02:11:49;10.50;45.20
37956;DHT22;23776;51.592;7.180;2023-04-28T02:14:15;10.40;99.90
37956;DHT22;23776;51.592;7.180;2023-04-28T02:16:40;10.20;99.90
37956;DHT22;23776;51.592;7.180;2023-04-28T02:19:06;10.10;52.30
37956;DHT22;23776;51.592;7.180;2023-04-28T02:21:31;10.10;99.90
37956;DHT22;23776;51.592;7.180;2023-04-28T02:23:57;10.10;99.90
37956;DHT22;23776;51.592;7.180;2023-04-28T02:26:23;10.10;99.90
37956;DHT22;23776;51.592;7.180;2023-04-28T02:28:49;10.20;99.90
37956;DHT22;23776;51.592;7.180;2023-04-28T02:31:14;10.20;1.00
37956;DHT22;23776;51.592;7.180;2023-04-28T02:33:40;10.20;1.00
37956;DHT22;23776;51.592;7.180;2023-04-28T02:36:07;10.20;1.00
37956;DHT22;23776;51.592;7.180;2023-04-28T02:38:33;10.10;1.00
37956;DHT22;23776;51.592;7.180;2023-04-28T02:41:06;10.10;1.00
37956;DHT22;23776;51.592;7.180;2023-04-28T02:43:34;10.10;1.00
37956;DHT22;23776;51.592;7.180;2023-04-28T02:46:00;10.10;1.00
37956;DHT22;23776;51.592;7.180;2023-04-28T02:48:25;10.00;1.00
37956;DHT22;23776;51.592;7.180;2023-04-28T02:50:51;9.90;1.00
37956;DHT22;23776;51.592;7.180;2023-04-28T02:53:18;8.40;1.00
37956;DHT22;23776;51.592;7.180;2023-04-28T02:55:44;9.80;1.00
37956;DHT22;23776;51.592;7.180;2023-04-28T02:58:09;9.90;1.00
37956;DHT22;23776;51.592;7.180;2023-04-28T03:00:35;9.90;1.00
37956;DHT22;23776;51.592;7.180;2023-04-28T03:03:01;10.00;1.00
37956;DHT22;23776;51.592;7.180;2023-04-28T03:05:26;9.80;1.00
37956;DHT22;23776;51.592;7.180;2023-04-28T03:07:52;9.80;1.00
37956;DHT22;23776;51.592;7.180;2023-04-28T03:10:18;9.70;1.00
37956;DHT22;23776;51.592;7.180;2023-04-28T03:12:44;9.70;1.00
37956;DHT22;23776;51.592;7.180;2023-04-28T03:15:10;9.70;1.00
37956;DHT22;23776;51.592;7.180;2023-04-28T03:17:36;9.70;1.00
37956;DHT22;23776;51.592;7.180;2023-04-28T03:20:04;9.70;1.00
37956;DHT22;23776;51.592;7.180;2023-04-28T03:22:30;9.70;1.00
37956;DHT22;23776;51.592;7.180;2023-04-28T03:24:55;9.70;1.00
37956;DHT22;23776;51.592;7.180;2023-04-28T03:27:21;9.60;1.00
37956;DHT22;23776;51.592;7.180;2023-04-28T03:29:46;9.60;1.00
37956;DHT22;23776;51.592;7.180;2023-04-28T03:32:12;9.50;1.00
37956;DHT22;23776;51.592;7.180;2023-04-28T03:34:38;9.50;1.00
37956;DHT22;23776;51.592;7.180;2023-04-28T03:37:04;9.50;1.00
37956;DHT22;23776;51.592;7.180;2023-04-28T03:39:29;9.40;1.00
37956;DHT22;23776;51.592;7.180;2023-04-28T03:41:55;9.40;1.00
37956;DHT22;23776;51.592;7.180;2023-04-28T03:44:20;9.40;1.00
37956;DHT22;23776;51.592;7.180;2023-04-28T03:46:48;9.40;1.00
37956;DHT22;23776;51.592;7.180;2023-04-28T03:49:13;9.40;1.00
37956;DHT22;23776;51.592;7.180;2023-04-28T03:51:39;9.30;1.00
37956;DHT22;23776;51.592;7.180;2023-04-28T03:54:05;9.20;1.00
37956;DHT22;23776;51.592;7.180;2023-04-28T03:56:31;9.30;1.00
37956;DHT22;23776;51.592;7.180;2023-04-28T03:58:57;9.20;1.00
37956;DHT22;23776;51.592;7.180;2023-04-28T04:01:22;9.20;1.00
37956;DHT22;23776;51.592;7.180;2023-04-28T04:03:48;9.30;1.00
37956;DHT22;23776;51.592;7.180;2023-04-28T04:06:14;9.30;1.00
37956;DHT22;23776;51.592;7.180;2023-04-28T04:08:39;9.30;1.00
37956;DHT22;23776;51.592;7.180;2023-04-28T04:11:05;9.20;1.00
37956;DHT22;23776;51.592;7.180;2023-04-28T04:13:31;9.20;1.00
37956;DHT22;23776;51.592;7.180;2023-04-28T04:15:56;9.10;1.00
37956;DHT22;23776;51.592;7.180;2023-04-28T04:18:22;9.10;1.00
37956;DHT22;23776;51.592;7.180;2023-04-28T04:20:47;9.10;1.80
37956;DHT22;23776;51.592;7.180;2023-04-28T04:23:14;9.10;1.00
37956;DHT22;23776;51.592;7.180;2023-04-28T04:25:41;9.10;7.90
37956;DHT22;23776;51.592;7.180;2023-04-28T04:28:06;9.10;8.80
37956;DHT22;23776;51.592;7.180;2023-04-28T04:30:32;9.00;12.90
37956;DHT22;23776;51.592;7.180;2023-04-28T04:32:58;9.10;14.60
37956;DHT22;23776;51.592;7.180;2023-04-28T04:35:23;9.20;22.00
37956;DHT22;23776;51.592;7.180;2023-04-28T04:37:49;9.20;27.40
37956;DHT22;23776;51.592;7.180;2023-04-28T04:40:15;9.40;33.00
37956;DHT22;23776;51.592;7.180;2023-04-28T04:42:41;9.40;32.90
37956;DHT22;23776;51.592;7.180;2023-04-28T04:45:07;9.50;36.30
37956;DHT22;23776;51.592;7.180;2023-04-28T04:47:33;9.50;35.70
37956;DHT22;23776;51.592;7.180;2023-04-28T04:49:58;9.60;43.20
37956;DHT22;23776;51.592;7.180;2023-04-28T04:52:24;9.70;46.80
37956;DHT22;23776;51.592;7.180;2023-04-28T04:54:50;9.70;48.80
37956;DHT22;23776;51.592;7.180;2023-04-28T04:57:15;9.70;47.80
37956;DHT22;23776;51.592;7.180;2023-04-28T04:59:41;9.70;48.20
37956;DHT22;23776;51.592;7.180;2023-04-28T05:02:07;9.80;49.40
37956;DHT22;23776;51.592;7.180;2023-04-28T05:04:33;9.80;47.50
37956;DHT22;23776;51.592;7.180;2023-04-28T05:06:59;9.90;45.80
37956;DHT22;23776;51.592;7.180;2023-04-28T05:09:24;9.90;44.20
37956;DHT22;23776;51.592;7.180;2023-04-28T05:11:50;9.80;44.80
37956;DHT22;23776;51.592;7.180;2023-04-28T05:14:15;9.90;42.40
37956;DHT22;23776;51.592;7.180;2023-04-28T05:16:41;9.90;42.50
37956;DHT22;23776;51.592;7.180;2023-04-28T05:19:07;10.00;48.10
37956;DHT22;23776;51.592;7.180;2023-04-28T05:21:33;10.10;45.50
37956;DHT22;23776;51.592;7.180;2023-04-28T05:23:58;10.10;49.90
37956;DHT22;23776;51.592;7.180;2023-04-28T05:26:24;10.10;48.70
37956;DHT22;23776;51.592;7.180;2023-04-28T05:28:49;10.00;46.90
37956;DHT22;23776;51.592;7.180;2023-04-28T05:31:15;10.10;45.90
37956;DHT22;23776;51.592;7.180;2023-04-28T05:33:41;10.00;49.60
37956;DHT22;23776;51.592;7.180;2023-04-28T05:36:07;10.10;50.30
37956;DHT22;23776;51.592;7.180;2023-04-28T05:38:33;10.10;50.30
37956;DHT22;23776;51.592;7.180;2023-04-28T05:41:00;10.20;53.70
37956;DHT22;23776;51.592;7.180;2023-04-28T05:43:26;10.20;52.50
37956;DHT22;23776;51.592;7.180;2023-04-28T05:45:51;10.20;55.50
37956;DHT22;23776;51.592;7.180;2023-04-28T05:48:17;10.30;54.50
37956;DHT22;23776;51.592;7.180;2023-04-28T05:50:43;10.30;54.60
37956;DHT22;23776;51.592;7.180;2023-04-28T05:53:08;10.40;55.90
37956;DHT22;23776;51.592;7.180;2023-04-28T05:55:34;10.50;59.60
37956;DHT22;23776;51.592;7.180;2023-04-28T05:58:01;10.60;59.10
37956;DHT22;23776;51.592;7.180;2023-04-28T06:00:27;10.70;58.20
37956;DHT22;23776;51.592;7.180;2023-04-28T06:02:52;10.70;58.40
37956;DHT22;23776;51.592;7.180;2023-04-28T06:05:18;10.70;58.00
37956;DHT22;23776;51.592;7.180;2023-04-28T06:07:44;10.70;58.50
37956;DHT22;23776;51.592;7.180;2023-04-28T06:10:09;10.70;58.50
37956;DHT22;23776;51.592;7.180;2023-04-28T06:12:35;10.70;59.40
37956;DHT22;23776;51.592;7.180;2023-04-28T06:15:02;10.70;60.40
37956;DHT22;23776;51.592;7.180;2023-04-28T06:17:27;10.60;59.50
37956;DHT22;23776;51.592;7.180;2023-04-28T06:19:55;10.60;61.50
37956;DHT22;23776;51.592;7.180;2023-04-28T06:22:23;10.60;61.20
37956;DHT22;23776;51.592;7.180;2023-04-28T06:24:49;10.70;63.90
37956;DHT22;23776;51.592;7.180;2023-04-28T06:27:14;10.70;62.20
37956;DHT22;23776;51.592;7.180;2023-04-28T06:29:40;10.70;62.80
37956;DHT22;23776;51.592;7.180;2023-04-28T06:32:06;10.80;61.10
37956;DHT22;23776;51.592;7.180;2023-04-28T06:34:31;10.80;61.40
37956;DHT22;23776;51.592;7.180;2023-04-28T06:37:00;10.90;61.70
37956;DHT22;23776;51.592;7.180;2023-04-28T06:39:26;10.90;63.00
37956;DHT22;23776;51.592;7.180;2023-04-28T06:41:51;10.90;62.20
37956;DHT22;23776;51.592;7.180;2023-04-28T06:44:17;10.90;62.60
37956;DHT22;23776;51.592;7.180;2023-04-28T06:46:43;11.00;63.30
37956;DHT22;23776;51.592;7.180;2023-04-28T06:49:08;11.20;59.10
37956;DHT22;23776;51.592;7.180;2023-04-28T06:51:34;11.20;58.40
37956;DHT22;23776;51.592;7.180;2023-04-28T06:54:00;11.80;58.80
37956;DHT22;23776;51.592;7.180;2023-04-28T06:56:25;11.30;57.60
37956;DHT22;23776;51.592;7.180;2023-04-28T06:58:53;11.30;56.50
37956;DHT22;23776;51.592;7.180;2023-04-28T07:01:19;11.40;55.90
37956;DHT22;23776;51.592;7.180;2023-04-28T07:03:44;11.40;56.80
37956;DHT22;23776;51.592;7.180;2023-04-28T07:06:10;11.40;58.20
37956;DHT22;23776;51.592;7.180;2023-04-28T07:08:37;11.50;58.00
37956;DHT22;23776;51.592;7.180;2023-04-28T07:11:03;11.50;57.30
37956;DHT22;23776;51.592;7.180;2023-04-28T07:13:29;11.60;57.90
37956;DHT22;23776;51.592;7.180;2023-04-28T07:15:55;11.80;56.50
37956;DHT22;23776;51.592;7.180;2023-04-28T07:18:20;11.90;55.90
37956;DHT22;23776;51.592;7.180;2023-04-28T07:20:46;12.00;56.10
37956;DHT22;23776;51.592;7.180;2023-04-28T07:23:13;12.20;53.30
37956;DHT22;23776;51.592;7.180;2023-04-28T07:25:38;12.30;47.40
37956;DHT22;23776;51.592;7.180;2023-04-28T07:28:05;12.40;46.70
37956;DHT22;23776;51.592;7.180;2023-04-28T07:30:31;12.60;41.70
37956;DHT22;23776;51.592;7.180;2023-04-28T07:32:57;12.60;42.00
37956;DHT22;23776;51.592;7.180;2023-04-28T07:35:23;12.70;42.70
37956;DHT22;23776;51.592;7.180;2023-04-28T07:37:48;12.70;38.30
37956;DHT22;23776;51.592;7.180;2023-04-28T07:40:15;12.80;29.70
37956;DHT22;23776;51.592;7.180;2023-04-28T07:42:40;12.80;32.60
37956;DHT22;23776;51.592;7.180;2023-04-28T07:45:07;12.90;27.10
37956;DHT22;23776;51.592;7.180;2023-04-28T07:47:33;12.90;20.30
37956;DHT22;23776;51.592;7.180;2023-04-28T07:49:58;13.10;18.20
37956;DHT22;23776;51.592;7.180;2023-04-28T07:52:27;13.10;2.20
37956;DHT22;23776;51.592;7.180;2023-04-28T07:54:53;13.30;1.00
37956;DHT22;23776;51.592;7.180;2023-04-28T07:57:18;13.40;1.00
37956;DHT22;23776;51.592;7.180;2023-04-28T07:59:44;13.60;1.00
37956;DHT22;23776;51.592;7.180;2023-04-28T08:02:10;13.70;1.00
37956;DHT22;23776;51.592;7.180;2023-04-28T08:04:38;13.90;1.00
37956;DHT22;23776;51.592;7.180;2023-04-28T08:07:03;14.00;1.00
37956;DHT22;23776;51.592;7.180;2023-04-28T08:09:29;14.20;1.00
37956;DHT22;23776;51.592;7.180;2023-04-28T08:11:55;16.90;1.00
37956;DHT22;23776;51.592;7.180;2023-04-28T08:14:20;14.30;1.00
37956;DHT22;23776;51.592;7.180;2023-04-28T08:16:47;14.50;1.00
37956;DHT22;23776;51.592;7.180;2023-04-28T08:19:13;14.50;1.00
37956;DHT22;23776;51.592;7.180;2023-04-28T08:21:38;14.70;1.00
37956;DHT22;23776;51.592;7.180;2023-04-28T08:24:04;14.60;99.90
37956;DHT22;23776;51.592;7.180;2023-04-28T08:26:30;14.70;1.00
37956;DHT22;23776;51.592;7.180;2023-04-28T08:28:55;14.80;1.00
37956;DHT22;23776;51.592;7.180;2023-04-28T08:31:21;14.90;99.90
37956;DHT22;23776;51.592;7.180;2023-04-28T08:33:46;15.10;99.90
37956;DHT22;23776;51.592;7.180;2023-04-28T08:36:16;15.30;99.90
37956;DHT22;23776;51.592;7.180;2023-04-28T08:38:43;15.40;99.90
37956;DHT22;23776;51.592;7.180;2023-04-28T08:41:08;15.30;82.60
37956;DHT22;23776;51.592;7.180;2023-04-28T08:43:35;15.30;1.00
37956;DHT22;23776;51.592;7.180;2023-04-28T08:46:05;15.40;95.10
37956;DHT22;23776;51.592;7.180;2023-04-28T08:48:40;15.80;1.00
37956;DHT22;23776;51.592;7.180;2023-04-28T08:51:06;15.40;99.90
37956;DHT22;23776;51.592;7.180;2023-04-28T08:53:36;18.20;1.00
37956;DHT22;23776;51.592;7.180;2023-04-28T08:56:07;15.70;99.90
37956;DHT22;23776;51.592;7.180;2023-04-28T08:58:35;15.80;99.90
37956;DHT22;23776;51.592;7.180;2023-04-28T09:01:02;15.90;99.90
37956;DHT22;23776;51.592;7.180;2023-04-28T09:03:30;15.70;99.90
37956;DHT22;23776;51.592;7.180;2023-04-28T09:05:56;15.70;61.40
37956;DHT22;23776;51.592;7.180;2023-04-28T09:08:22;15.70;23.20
37956;DHT22;23776;51.592;7.180;2023-04-28T09:10:48;15.70;99.90
37956;DHT22;23776;51.592;7.180;2023-04-28T09:13:29;15.90;99.90
37956;DHT22;23776;51.592;7.180;2023-04-28T09:15:58;16.00;49.70
37956;DHT22;23776;51.592;7.180;2023-04-28T09:18:24;16.00;99.90
37956;DHT22;23776;51.592;7.180;2023-04-28T09:20:50;15.90;99.90
37956;DHT22;23776;51.592;7.180;2023-04-28T09:23:17;16.00;99.90
37956;DHT22;23776;51.592;7.180;2023-04-28T09:26:02;16.20;40.70
37956;DHT22;23776;51.592;7.180;2023-04-28T09:28:29;16.30;99.90
37956;DHT22;23776;51.592;7.180;2023-04-28T09:30:55;16.30;99.90
37956;DHT22;23776;51.592;7.180;2023-04-28T09:33:21;16.30;99.90
37956;DHT22;23776;51.592;7.180;2023-04-28T09:35:47;16.30;99.90
37956;DHT22;23776;51.592;7.180;2023-04-28T09:38:14;16.30;99.90
37956;DHT22;23776;51.592;7.180;2023-04-28T09:43:28;16.20;1.00
37956;DHT22;23776;51.592;7.180;2023-04-28T09:45:56;16.10;1.00
37956;DHT22;23776;51.592;7.180;2023-04-28T09:48:30;16.00;61.10
37956;DHT22;23776;51.592;7.180;2023-04-28T09:50:57;16.00;99.90
37956;DHT22;23776;51.592;7.180;2023-04-28T09:53:24;15.90;99.90
37956;DHT22;23776;51.592;7.180;2023-04-28T09:55:52;15.70;99.90
37956;DHT22;23776;51.592;7.180;2023-04-28T09:58:20;15.70;99.90
37956;DHT22;23776;51.592;7.180;2023-04-28T10:00:54;15.80;99.90
37956;DHT22;23776;51.592;7.180;2023-04-28T10:03:27;15.80;1.00
37956;DHT22;23776;51.592;7.180;2023-04-28T10:05:54;15.90;1.00
37956;DHT22;23776;51.592;7.180;2023-04-28T10:08:21;16.10;99.90
37956;DHT22;23776;51.592;7.180;2023-04-28T10:10:48;16.30;52.70
37956;DHT22;23776;51.592;7.180;2023-04-28T10:13:18;16.30;99.90
37956;DHT22;23776;51.592;7.180;2023-04-28T10:15:45;16.40;99.90
37956;DHT22;23776;51.592;7.180;2023-04-28T10:18:12;16.40;36.70
37956;DHT22;23776;51.592;7.180;2023-04-28T10:20:51;16.30;99.90
37956;DHT22;23776;51.592;7.180;2023-04-28T10:25:59;16.30;99.90
37956;DHT22;23776;51.592;7.180;2023-04-28T10:28:25;16.20;99.90
37956;DHT22;23776;51.592;7.180;2023-04-28T10:31:11;16.10;99.90
37956;DHT22;23776;51.592;7.180;2023-04-28T10:33:38;16.20;1.00
37956;DHT22;23776;51.592;7.180;2023-04-28T10:36:04;16.30;1.00
37956;DHT22;23776;51.592;7.180;2023-04-28T10:38:30;16.30;99.90
37956;DHT22;23776;51.592;7.180;2023-04-28T10:40:56;16.50;99.90
37956;DHT22;23776;51.592;7.180;2023-04-28T10:58:41;16.50;99.90
37956;DHT22;23776;51.592;7.180;2023-04-28T11:03:59;16.10;1.00
37956;DHT22;23776;51.592;7.180;2023-04-28T11:06:39;16.00;1.00
37956;DHT22;23776;51.592;7.180;2023-04-28T11:11:37;15.70;99.90
37956;DHT22;23776;51.592;7.180;2023-04-28T11:16:55;15.70;99.90
37956;DHT22;23776;51.592;7.180;2023-04-28T11:19:35;15.70;99.90
37956;DHT22;23776;51.592;7.180;2023-04-28T11:24:37;15.60;1.00
37956;DHT22;23776;51.592;7.180;2023-04-28T11:27:03;15.60;1.00
37956;DHT22;23776;51.592;7.180;2023-04-28T11:29:36;15.50;1.00
37956;DHT22;23776;51.592;7.180;2023-04-28T11:32:03;15.30;1.00
37956;DHT22;23776;51.592;7.180;2023-04-28T11:34:29;15.20;1.00
37956;DHT22;23776;51.592;7.180;2023-04-28T11:36:55;15.10;1.00
37956;DHT22;23776;51.592;7.180;2023-04-28T11:39:33;15.00;9.10
37956;DHT22;23776;51.592;7.180;2023-04-28T11:42:01;15.00;1.00
37956;DHT22;23776;51.592;7.180;2023-04-28T11:44:29;15.10;1.00
37956;DHT22;23776;51.592;7.180;2023-04-28T11:46:59;15.00;1.70
37956;DHT22;23776;51.592;7.180;2023-04-28T11:49:26;15.00;9.60
37956;DHT22;23776;51.592;7.180;2023-04-28T11:52:05;14.90;25.40
37956;DHT22;23776;51.592;7.180;2023-04-28T11:54:31;14.90;26.30
37956;DHT22;23776;51.592;7.180;2023-04-28T11:56:58;14.90;28.00
37956;DHT22;23776;51.592;7.180;2023-04-28T11:59:27;14.90;32.30
37956;DHT22;23776;51.592;7.180;2023-04-28T12:01:58;15.00;29.60
37956;DHT22;23776;51.592;7.180;2023-04-28T12:04:29;15.00;25.60
37956;DHT22;23776;51.592;7.180;2023-04-28T12:07:05;15.10;26.80
37956;DHT22;23776;51.592;7.180;2023-04-28T12:09:32;15.10;19.50
37956;DHT22;23776;51.592;7.180;2023-04-28T12:12:00;15.10;20.90
37956;DHT22;23776;51.592;7.180;2023-04-28T12:14:28;15.20;31.00
37956;DHT22;23776;51.592;7.180;2023-04-28T12:16:54;15.20;29.50
37956;DHT22;23776;51.592;7.180;2023-04-28T12:19:21;15.20;28.70
37956;DHT22;23776;51.592;7.180;2023-04-28T12:22:03;15.20;22.70
37956;DHT22;23776;51.592;7.180;2023-04-28T12:24:29;15.20;25.50
37956;DHT22;23776;51.592;7.180;2023-04-28T12:27:19;15.20;25.70
37956;DHT22;23776;51.592;7.180;2023-04-28T12:29:49;15.10;20.70
37956;DHT22;23776;51.592;7.180;2023-04-28T12:32:16;15.10;24.20
37956;DHT22;23776;51.592;7.180;2023-04-28T12:34:44;15.10;19.60
37956;DHT22;23776;51.592;7.180;2023-04-28T12:37:10;15.20;22.90
37956;DHT22;23776;51.592;7.180;2023-04-28T12:39:39;15.30;12.90
37956;DHT22;23776;51.592;7.180;2023-04-28T12:42:05;15.40;9.30
37956;DHT22;23776;51.592;7.180;2023-04-28T12:44:32;15.50;5.20
37956;DHT22;23776;51.592;7.180;2023-04-28T12:47:01;15.50;1.00
37956;DHT22;23776;51.592;7.180;2023-04-28T12:49:27;15.30;2.40
37956;DHT22;23776;51.592;7.180;2023-04-28T12:51:52;15.40;2.20
37956;DHT22;23776;51.592;7.180;2023-04-28T12:54:18;15.30;6.00
37956;DHT22;23776;51.592;7.180;2023-04-28T12:56:44;15.40;6.90
37956;DHT22;23776;51.592;7.180;2023-04-28T12:59:09;15.30;10.60
37956;DHT22;23776;51.592;7.180;2023-04-28T13:01:35;15.40;13.40
37956;DHT22;23776;51.592;7.180;2023-04-28T13:04:01;14.20;11.30
37956;DHT22;23776;51.592;7.180;2023-04-28T13:06:27;15.60;6.50
37956;DHT22;23776;51.592;7.180;2023-04-28T13:08:53;14.30;5.30
37956;DHT22;23776;51.592;7.180;2023-04-28T13:11:18;16.00;1.80
37956;DHT22;23776;51.592;7.180;2023-04-28T13:13:44;16.30;1.00
37956;DHT22;23776;51.592;7.180;2023-04-28T13:16:10;17.10;1.00
37956;DHT22;23776;51.592;7.180;2023-04-28T13:18:36;17.60;1.00
37956;DHT22;23776;51.592;7.180;2023-04-28T13:21:02;17.80;99.90
37956;DHT22;23776;51.592;7.180;2023-04-28T13:23:29;18.30;99.90
37956;DHT22;23776;51.592;7.180;2023-04-28T13:25:55;18.80;1.00
37956;DHT22;23776;51.592;7.180;2023-04-28T13:28:21;18.90;99.90
37956;DHT22;23776;51.592;7.180;2023-04-28T13:30:46;18.80;99.90
37956;DHT22;23776;51.592;7.180;2023-04-28T13:33:12;18.60;28.90
37956;DHT22;23776;51.592;7.180;2023-04-28T13:35:37;18.50;97.20
37956;DHT22;23776;51.592;7.180;2023-04-28T13:38:03;18.30;99.90
37956;DHT22;23776;51.592;7.180;2023-04-28T13:40:29;17.90;1.00
37956;DHT22;23776;51.592;7.180;2023-04-28T13:42:54;17.90;1.00
37956;DHT22;23776;51.592;7.180;2023-04-28T13:45:20;17.80;1.00
37956;DHT22;23776;51.592;7.180;2023-04-28T13:47:46;17.90;66.50
37956;DHT22;23776;51.592;7.180;2023-04-28T13:50:15;18.10;1.00
37956;DHT22;23776;51.592;7.180;2023-04-28T13:52:41;18.30;99.90
37956;DHT22;23776;51.592;7.180;2023-04-28T13:55:07;18.60;1.00
37956;DHT22;23776;51.592;7.180;2023-04-28T13:57:33;19.00;99.90
37956;DHT22;23776;51.592;7.180;2023-04-28T13:59:59;19.40;1.00
37956;DHT22;23776;51.592;7.180;2023-04-28T14:02:25;19.30;9.70
37956;DHT22;23776;51.592;7.180;2023-04-28T14:04:51;19.00;52.20
37956;DHT22;23776;51.592;7.180;2023-04-28T14:07:17;18.70;1.00
37956;DHT22;23776;51.592;7.180;2023-04-28T14:09:43;18.40;1.00
37956;DHT22;23776;51.592;7.180;2023-04-28T14:12:09;20.60;52.70
37956;DHT22;23776;51.592;7.180;2023-04-28T14:14:35;18.20;99.90
37956;DHT22;23776;51.592;7.180;2023-04-28T14:17:01;18.10;20.50
37956;DHT22;23776;51.592;7.180;2023-04-28T14:19:27;18.10;99.90
37956;DHT22;23776;51.592;7.180;2023-04-28T14:21:53;18.10;53.20
37956;DHT22;23776;51.592;7.180;2023-04-28T14:24:19;18.10;99.90
37956;DHT22;23776;51.592;7.180;2023-04-28T14:26:45;18.00;1.00
37956;DHT22;23776;51.592;7.180;2023-04-28T14:29:10;17.90;1.00
37956;DHT22;23776;51.592;7.180;2023-04-28T14:31:36;17.90;90.80
37956;DHT22;23776;51.592;7.180;2023-04-28T14:34:03;17.80;93.80
37956;DHT22;23776;51.592;7.180;2023-04-28T14:36:30;17.80;99.90
37956;DHT22;23776;51.592;7.180;2023-04-28T14:38:57;17.70;1.00
37956;DHT22;23776;51.592;7.180;2023-04-28T14:41:23;17.60;1.00
37956;DHT22;23776;51.592;7.180;2023-04-28T14:43:48;17.50;1.00
37956;DHT22;23776;51.592;7.180;2023-04-28T14:46:14;17.50;99.90
37956;DHT22;23776;51.592;7.180;2023-04-28T14:48:42;17.60;99.90
37956;DHT22;23776;51.592;7.180;2023-04-28T14:51:08;17.60;1.00
37956;DHT22;23776;51.592;7.180;2023-04-28T14:53:34;17.70;1.00
37956;DHT22;23776;51.592;7.180;2023-04-28T14:56:00;17.80;1.00
37956;DHT22;23776;51.592;7.180;2023-04-28T14:58:25;17.90;99.90
37956;DHT22;23776;51.592;7.180;2023-04-28T15:00:51;18.00;99.90
37956;DHT22;23776;51.592;7.180;2023-04-28T15:03:17;18.00;99.90
37956;DHT22;23776;51.592;7.180;2023-04-28T15:05:43;18.00;99.90
37956;DHT22;23776;51.592;7.180;2023-04-28T15:08:09;18.00;99.90
37956;DHT22;23776;51.592;7.180;2023-04-28T15:10:39;17.80;99.90
37956;DHT22;23776;51.592;7.180;2023-04-28T15:13:07;17.90;99.90
37956;DHT22;23776;51.592;7.180;2023-04-28T15:15:33;17.90;99.90
37956;DHT22;23776;51.592;7.180;2023-04-28T15:17:59;17.90;99.90
37956;DHT22;23776;51.592;7.180;2023-04-28T15:20:32;18.00;99.90
37956;DHT22;23776;51.592;7.180;2023-04-28T15:22:58;18.10;1.00
37956;DHT22;23776;51.592;7.180;2023-04-28T15:25:24;18.00;99.90
37956;DHT22;23776;51.592;7.180;2023-04-28T15:27:50;17.80;1.00
37956;DHT22;23776;51.592;7.180;2023-04-28T15:30:16;17.80;1.00
37956;DHT22;23776;51.592;7.180;2023-04-28T15:32:42;17.60;99.90
37956;DHT22;23776;51.592;7.180;2023-04-28T15:35:08;17.50;64.20
37956;DHT22;23776;51.592;7.180;2023-04-28T15:37:45;17.40;99.90
37956;DHT22;23776;51.592;7.180;2023-04-28T15:40:17;17.30;1.00
37956;DHT22;23776;51.592;7.180;2023-04-28T15:42:44;17.10;99.90
37956;DHT22;23776;51.592;7.180;2023-04-28T15:45:18;17.00;99.90
37956;DHT22;23776;51.592;7.180;2023-04-28T15:47:45;16.80;99.90
37956;DHT22;23776;51.592;7.180;2023-04-28T15:50:11;16.80;1.00
37956;DHT22;23776;51.592;7.180;2023-04-28T15:52:38;16.70;1.00
37956;DHT22;23776;51.592;7.180;2023-04-28T15:55:06;16.70;4.30
37956;DHT22;23776;51.592;7.180;2023-04-28T15:57:32;17.10;1.00
37956;DHT22;23776;51.592;7.180;2023-04-28T15:59:58;17.30;99.90
37956;DHT22;23776;51.592;7.180;2023-04-28T16:02:24;17.20;99.90
37956;DHT22;23776;51.592;7.180;2023-04-28T16:04:49;17.00;99.90
37956;DHT22;23776;51.592;7.180;2023-04-28T16:07:15;16.80;99.90